sensor_id;sensor_type;location;lat;lon;timestamp;P1;durP1;ratioP1;P2;durP2;ratioP2
25079;SDS011;13071;48.868;9.996;2024-03-22T00:01:00;12.10;;;5.53;;
25079;SDS011;13071;48.868;9.996;2024-03-22T00:03:28;8.15;;;4.68;;
25079;SDS011;13071;48.868;9.996;2024-03-22T00:05:54;10.38;;;5.15;;
25079;SDS011;13071;48.868;9.996;2024-03-22T00:08:21;12.82;;;5.25;;
25079;SDS011;13071;48.868;9.996;2024-03-22T00:10:46;8.63;;;4.93;;
25079;SDS011;13071;48.868;9.996;2024-03-22T00:13:13;10.77;;;5.07;;
25079;SDS011;13071;48.868;9.996;2024-03-22T00:15:38;9.38;;;4.95;;
25079;SDS011;13071;48.868;9.996;2024-03-22T00:18:05;9.27;;;4.50;;
25079;SDS011;13071;48.868;9.996;2024-03-22T00:20:32;11.38;;;4.78;;
25079;SDS011;13071;48.868;9.996;2024-03-22T00:22:58;8.48;;;4.57;;
25079;SDS011;13071;48.868;9.996;2024-03-22T00:25:23;10.55;;;5.38;;
25079;SDS011;13071;48.868;9.996;2024-03-22T00:27:50;10.63;;;4.97;;
25079;SDS011;13071;48.868;9.996;2024-03-22T00:30:15;14.00;;;5.88;;
25079;SDS011;13071;48.868;9.996;2024-03-22T00:32:41;15.55;;;5.50;;
25079;SDS011;13071;48.868;9.996;2024-03-22T00:35:09;12.88;;;5.97;;
25079;SDS011;13071;48.868;9.996;2024-03-22T00:37:37;9.73;;;5.18;;
25079;SDS011;13071;48.868;9.996;2024-03-22T00:40:02;12.13;;;5.50;;
25079;SDS011;13071;48.868;9.996;2024-03-22T00:42:29;14.95;;;5.80;;
25079;SDS011;13071;48.868;9.996;2024-03-22T00:44:55;11.90;;;5.22;;
25079;SDS011;13071;48.868;9.996;2024-03-22T00:47:22;13.77;;;5.28;;
25079;SDS011;13071;48.868;9.996;2024-03-22T00:49:48;12.70;;;5.70;;
25079;SDS011;13071;48.868;9.996;2024-03-22T00:52:14;11.00;;;5.30;;
25079;SDS011;13071;48.868;9.996;2024-03-22T00:54:41;14.38;;;5.60;;
25079;SDS011;13071;48.868;9.996;2024-03-22T00:57:08;17.10;;;5.05;;
25079;SDS011;13071;48.868;9.996;2024-03-22T00:59:33;13.15;;;5.63;;
25079;SDS011;13071;48.868;9.996;2024-03-22T01:02:00;13.50;;;4.82;;
25079;SDS011;13071;48.868;9.996;2024-03-22T01:04:25;18.88;;;5.32;;
25079;SDS011;13071;48.868;9.996;2024-03-22T01:06:52;10.32;;;4.70;;
25079;SDS011;13071;48.868;9.996;2024-03-22T01:09:17;9.57;;;4.97;;
25079;SDS011;13071;48.868;9.996;2024-03-22T01:11:46;12.65;;;5.28;;
25079;SDS011;13071;48.868;9.996;2024-03-22T01:14:11;10.80;;;4.90;;
25079;SDS011;13071;48.868;9.996;2024-03-22T01:16:37;15.80;;;4.97;;
25079;SDS011;13071;48.868;9.996;2024-03-22T01:19:03;9.13;;;4.78;;
25079;SDS011;13071;48.868;9.996;2024-03-22T01:21:29;10.27;;;5.18;;
25079;SDS011;13071;48.868;9.996;2024-03-22T01:23:55;11.18;;;5.07;;
25079;SDS011;13071;48.868;9.996;2024-03-22T01:26:21;11.15;;;4.90;;
25079;SDS011;13071;48.868;9.996;2024-03-22T01:28:48;11.23;;;5.18;;
25079;SDS011;13071;48.868;9.996;2024-03-22T01:31:14;9.65;;;4.88;;
25079;SDS011;13071;48.868;9.996;2024-03-22T01:33:41;10.18;;;5.15;;
25079;SDS011;13071;48.868;9.996;2024-03-22T01:36:07;9.20;;;4.72;;
25079;SDS011;13071;48.868;9.996;2024-03-22T01:38:32;10.32;;;4.28;;
25079;SDS011;13071;48.868;9.996;2024-03-22T01:40:59;8.50;;;4.13;;
25079;SDS011;13071;48.868;9.996;2024-03-22T01:43:24;11.73;;;4.85;;
25079;SDS011;13071;48.868;9.996;2024-03-22T01:45:52;12.00;;;5.28;;
25079;SDS011;13071;48.868;9.996;2024-03-22T01:48:17;12.60;;;4.90;;
25079;SDS011;13071;48.868;9.996;2024-03-22T01:50:44;15.95;;;5.35;;
25079;SDS011;13071;48.868;9.996;2024-03-22T01:53:09;12.00;;;5.30;;
25079;SDS011;13071;48.868;9.996;2024-03-22T01:55:36;6.68;;;3.85;;
25079;SDS011;13071;48.868;9.996;2024-03-22T01:58:01;13.43;;;5.22;;
25079;SDS011;13071;48.868;9.996;2024-03-22T02:00:28;12.05;;;4.38;;
25079;SDS011;13071;48.868;9.996;2024-03-22T02:02:55;10.98;;;4.93;;
25079;SDS011;13071;48.868;9.996;2024-03-22T02:05:21;8.98;;;4.50;;
25079;SDS011;13071;48.868;9.996;2024-03-22T02:07:46;9.50;;;4.68;;
25079;SDS011;13071;48.868;9.996;2024-03-22T02:10:13;8.73;;;4.40;;
25079;SDS011;13071;48.868;9.996;2024-03-22T02:12:38;9.82;;;5.18;;
25079;SDS011;13071;48.868;9.996;2024-03-22T02:15:05;12.95;;;4.88;;
25079;SDS011;13071;48.868;9.996;2024-03-22T02:17:31;10.07;;;4.85;;
25079;SDS011;13071;48.868;9.996;2024-03-22T02:19:59;10.57;;;4.53;;
25079;SDS011;13071;48.868;9.996;2024-03-22T02:22:25;9.27;;;4.82;;
25079;SDS011;13071;48.868;9.996;2024-03-22T02:24:53;11.43;;;4.57;;
25079;SDS011;13071;48.868;9.996;2024-03-22T02:27:19;10.63;;;4.55;;
25079;SDS011;13071;48.868;9.996;2024-03-22T02:29:45;9.57;;;4.13;;
25079;SDS011;13071;48.868;9.996;2024-03-22T02:32:10;10.15;;;4.28;;
25079;SDS011;13071;48.868;9.996;2024-03-22T02:34:37;9.55;;;4.00;;
25079;SDS011;13071;48.868;9.996;2024-03-22T02:37:02;10.43;;;3.90;;
25079;SDS011;13071;48.868;9.996;2024-03-22T02:39:29;8.80;;;3.60;;
25079;SDS011;13071;48.868;9.996;2024-03-22T02:41:56;9.60;;;3.35;;
25079;SDS011;13071;48.868;9.996;2024-03-22T02:44:22;8.60;;;3.70;;
25079;SDS011;13071;48.868;9.996;2024-03-22T02:46:48;6.90;;;3.35;;
25079;SDS011;13071;48.868;9.996;2024-03-22T02:49:14;3.50;;;2.65;;
25079;SDS011;13071;48.868;9.996;2024-03-22T02:51:39;6.28;;;2.60;;
25079;SDS011;13071;48.868;9.996;2024-03-22T02:54:06;8.18;;;3.08;;
25079;SDS011;13071;48.868;9.996;2024-03-22T02:56:31;4.90;;;2.70;;
25079;SDS011;13071;48.868;9.996;2024-03-22T02:58:59;6.15;;;3.22;;
25079;SDS011;13071;48.868;9.996;2024-03-22T03:01:24;8.15;;;3.10;;
25079;SDS011;13071;48.868;9.996;2024-03-22T03:03:51;7.18;;;3.00;;
25079;SDS011;13071;48.868;9.996;2024-03-22T03:06:16;5.22;;;2.90;;
25079;SDS011;13071;48.868;9.996;2024-03-22T03:08:45;7.60;;;3.50;;
25079;SDS011;13071;48.868;9.996;2024-03-22T03:11:10;5.50;;;2.72;;
25079;SDS011;13071;48.868;9.996;2024-03-22T03:13:36;7.65;;;3.15;;
25079;SDS011;13071;48.868;9.996;2024-03-22T03:16:03;6.60;;;3.03;;
25079;SDS011;13071;48.868;9.996;2024-03-22T03:18:30;6.60;;;3.17;;
25079;SDS011;13071;48.868;9.996;2024-03-22T03:20:55;6.60;;;3.45;;
25079;SDS011;13071;48.868;9.996;2024-03-22T03:23:22;7.35;;;2.85;;
25079;SDS011;13071;48.868;9.996;2024-03-22T03:25:47;6.93;;;3.25;;
25079;SDS011;13071;48.868;9.996;2024-03-22T03:28:13;5.38;;;3.15;;
25079;SDS011;13071;48.868;9.996;2024-03-22T03:30:39;7.72;;;3.28;;
25079;SDS011;13071;48.868;9.996;2024-03-22T03:33:06;9.50;;;2.80;;
25079;SDS011;13071;48.868;9.996;2024-03-22T03:35:32;7.25;;;3.60;;
25079;SDS011;13071;48.868;9.996;2024-03-22T03:37:58;7.45;;;3.40;;
25079;SDS011;13071;48.868;9.996;2024-03-22T03:40:24;8.57;;;3.50;;
25079;SDS011;13071;48.868;9.996;2024-03-22T03:42:51;6.60;;;3.20;;
25079;SDS011;13071;48.868;9.996;2024-03-22T03:45:17;11.75;;;3.85;;
25079;SDS011;13071;48.868;9.996;2024-03-22T03:47:43;7.38;;;3.85;;
25079;SDS011;13071;48.868;9.996;2024-03-22T03:50:10;7.57;;;3.78;;
25079;SDS011;13071;48.868;9.996;2024-03-22T03:52:37;11.63;;;3.72;;
25079;SDS011;13071;48.868;9.996;2024-03-22T03:55:03;8.02;;;3.47;;
25079;SDS011;13071;48.868;9.996;2024-03-22T03:57:29;5.45;;;3.67;;
25079;SDS011;13071;48.868;9.996;2024-03-22T03:59:54;11.02;;;3.63;;
25079;SDS011;13071;48.868;9.996;2024-03-22T04:02:21;8.38;;;3.47;;
25079;SDS011;13071;48.868;9.996;2024-03-22T04:04:46;6.80;;;3.47;;
25079;SDS011;13071;48.868;9.996;2024-03-22T04:07:14;6.35;;;3.60;;
25079;SDS011;13071;48.868;9.996;2024-03-22T04:09:39;6.68;;;3.25;;
25079;SDS011;13071;48.868;9.996;2024-03-22T04:12:06;8.25;;;3.70;;
25079;SDS011;13071;48.868;9.996;2024-03-22T04:14:31;8.25;;;3.60;;
25079;SDS011;13071;48.868;9.996;2024-03-22T04:16:57;5.75;;;3.05;;
25079;SDS011;13071;48.868;9.996;2024-03-22T04:19:23;5.30;;;2.60;;
25079;SDS011;13071;48.868;9.996;2024-03-22T04:21:49;6.40;;;2.92;;
25079;SDS011;13071;48.868;9.996;2024-03-22T04:24:16;14.45;;;4.53;;
25079;SDS011;13071;48.868;9.996;2024-03-22T04:26:42;7.15;;;3.75;;
25079;SDS011;13071;48.868;9.996;2024-03-22T04:29:08;6.60;;;3.55;;
25079;SDS011;13071;48.868;9.996;2024-03-22T04:31:34;7.57;;;3.30;;
25079;SDS011;13071;48.868;9.996;2024-03-22T04:34:00;8.15;;;3.30;;
25079;SDS011;13071;48.868;9.996;2024-03-22T04:36:26;6.35;;;3.28;;
25079;SDS011;13071;48.868;9.996;2024-03-22T04:38:52;11.68;;;3.67;;
25079;SDS011;13071;48.868;9.996;2024-03-22T04:41:19;7.80;;;3.30;;
25079;SDS011;13071;48.868;9.996;2024-03-22T04:43:45;8.23;;;3.53;;
25079;SDS011;13071;48.868;9.996;2024-03-22T04:46:11;9.45;;;3.60;;
25079;SDS011;13071;48.868;9.996;2024-03-22T04:48:37;7.50;;;3.17;;
25079;SDS011;13071;48.868;9.996;2024-03-22T04:51:04;11.02;;;4.70;;
25079;SDS011;13071;48.868;9.996;2024-03-22T04:53:30;10.35;;;4.00;;
25079;SDS011;13071;48.868;9.996;2024-03-22T04:55:56;10.15;;;4.20;;
25079;SDS011;13071;48.868;9.996;2024-03-22T04:58:23;8.75;;;3.70;;
25079;SDS011;13071;48.868;9.996;2024-03-22T05:00:49;10.50;;;4.57;;
25079;SDS011;13071;48.868;9.996;2024-03-22T05:03:16;7.32;;;3.63;;
25079;SDS011;13071;48.868;9.996;2024-03-22T05:05:41;11.07;;;4.30;;
25079;SDS011;13071;48.868;9.996;2024-03-22T05:08:08;13.30;;;4.32;;
25079;SDS011;13071;48.868;9.996;2024-03-22T05:10:34;12.73;;;4.95;;
25079;SDS011;13071;48.868;9.996;2024-03-22T05:13:00;13.10;;;4.97;;
25079;SDS011;13071;48.868;9.996;2024-03-22T05:15:27;11.82;;;4.50;;
25079;SDS011;13071;48.868;9.996;2024-03-22T05:17:55;14.88;;;4.65;;
25079;SDS011;13071;48.868;9.996;2024-03-22T05:20:21;10.32;;;4.55;;
25079;SDS011;13071;48.868;9.996;2024-03-22T05:22:47;13.63;;;5.25;;
25079;SDS011;13071;48.868;9.996;2024-03-22T05:25:13;18.77;;;5.90;;
25079;SDS011;13071;48.868;9.996;2024-03-22T05:27:40;11.20;;;4.85;;
25079;SDS011;13071;48.868;9.996;2024-03-22T05:30:06;15.85;;;5.47;;
25079;SDS011;13071;48.868;9.996;2024-03-22T05:32:34;18.33;;;5.30;;
25079;SDS011;13071;48.868;9.996;2024-03-22T05:34:59;14.45;;;4.95;;
25079;SDS011;13071;48.868;9.996;2024-03-22T05:37:26;12.20;;;5.25;;
25079;SDS011;13071;48.868;9.996;2024-03-22T05:39:51;13.10;;;5.35;;
25079;SDS011;13071;48.868;9.996;2024-03-22T05:42:18;15.88;;;5.38;;
25079;SDS011;13071;48.868;9.996;2024-03-22T05:44:43;15.30;;;4.97;;
25079;SDS011;13071;48.868;9.996;2024-03-22T05:47:10;11.05;;;4.80;;
25079;SDS011;13071;48.868;9.996;2024-03-22T05:49:37;17.38;;;5.57;;
25079;SDS011;13071;48.868;9.996;2024-03-22T05:52:03;14.85;;;5.80;;
25079;SDS011;13071;48.868;9.996;2024-03-22T05:54:28;14.75;;;5.68;;
25079;SDS011;13071;48.868;9.996;2024-03-22T05:56:55;12.75;;;5.45;;
25079;SDS011;13071;48.868;9.996;2024-03-22T05:59:20;26.25;;;5.85;;
25079;SDS011;13071;48.868;9.996;2024-03-22T06:01:47;23.75;;;6.63;;
25079;SDS011;13071;48.868;9.996;2024-03-22T06:04:12;10.88;;;4.72;;
25079;SDS011;13071;48.868;9.996;2024-03-22T06:06:40;14.38;;;5.93;;
25079;SDS011;13071;48.868;9.996;2024-03-22T06:09:05;14.18;;;5.85;;
25079;SDS011;13071;48.868;9.996;2024-03-22T06:11:34;11.93;;;5.05;;
25079;SDS011;13071;48.868;9.996;2024-03-22T06:13:59;14.25;;;5.85;;
25079;SDS011;13071;48.868;9.996;2024-03-22T06:16:26;16.98;;;6.63;;
25079;SDS011;13071;48.868;9.996;2024-03-22T06:18:51;16.90;;;6.78;;
25079;SDS011;13071;48.868;9.996;2024-03-22T06:21:17;13.90;;;5.55;;
25079;SDS011;13071;48.868;9.996;2024-03-22T06:23:48;13.02;;;5.28;;
25079;SDS011;13071;48.868;9.996;2024-03-22T06:26:14;12.95;;;5.38;;
25079;SDS011;13071;48.868;9.996;2024-03-22T06:28:40;14.60;;;6.45;;
25079;SDS011;13071;48.868;9.996;2024-03-22T06:31:06;12.75;;;5.30;;
25079;SDS011;13071;48.868;9.996;2024-03-22T06:33:32;15.57;;;5.20;;
25079;SDS011;13071;48.868;9.996;2024-03-22T06:35:58;13.20;;;5.28;;
25079;SDS011;13071;48.868;9.996;2024-03-22T06:38:23;11.27;;;5.43;;
25079;SDS011;13071;48.868;9.996;2024-03-22T06:40:51;13.02;;;4.95;;
25079;SDS011;13071;48.868;9.996;2024-03-22T06:43:16;11.32;;;5.20;;
25079;SDS011;13071;48.868;9.996;2024-03-22T06:45:43;14.57;;;5.20;;
25079;SDS011;13071;48.868;9.996;2024-03-22T06:48:08;20.55;;;7.03;;
25079;SDS011;13071;48.868;9.996;2024-03-22T06:50:34;20.42;;;8.30;;
25079;SDS011;13071;48.868;9.996;2024-03-22T06:53:00;21.52;;;9.10;;
25079;SDS011;13071;48.868;9.996;2024-03-22T06:55:26;23.10;;;10.00;;
25079;SDS011;13071;48.868;9.996;2024-03-22T06:57:53;21.95;;;9.60;;
25079;SDS011;13071;48.868;9.996;2024-03-22T07:00:20;19.58;;;8.65;;
25079;SDS011;13071;48.868;9.996;2024-03-22T07:02:45;20.70;;;9.70;;
25079;SDS011;13071;48.868;9.996;2024-03-22T07:05:11;20.83;;;10.60;;
25079;SDS011;13071;48.868;9.996;2024-03-22T07:07:37;20.95;;;9.60;;
25079;SDS011;13071;48.868;9.996;2024-03-22T07:10:04;18.10;;;9.52;;
25079;SDS011;13071;48.868;9.996;2024-03-22T07:12:30;25.45;;;10.32;;
25079;SDS011;13071;48.868;9.996;2024-03-22T07:14:58;22.42;;;10.45;;
25079;SDS011;13071;48.868;9.996;2024-03-22T07:17:24;23.98;;;10.02;;
25079;SDS011;13071;48.868;9.996;2024-03-22T07:19:50;29.48;;;10.20;;
25079;SDS011;13071;48.868;9.996;2024-03-22T07:22:16;26.85;;;10.05;;
25079;SDS011;13071;48.868;9.996;2024-03-22T07:24:43;22.40;;;10.25;;
25079;SDS011;13071;48.868;9.996;2024-03-22T07:27:08;23.20;;;10.20;;
25079;SDS011;13071;48.868;9.996;2024-03-22T07:29:35;21.70;;;9.55;;
25079;SDS011;13071;48.868;9.996;2024-03-22T07:32:01;21.58;;;9.13;;
25079;SDS011;13071;48.868;9.996;2024-03-22T07:34:28;18.85;;;9.63;;
25079;SDS011;13071;48.868;9.996;2024-03-22T07:36:53;20.75;;;9.85;;
25079;SDS011;13071;48.868;9.996;2024-03-22T07:39:20;23.63;;;9.95;;
25079;SDS011;13071;48.868;9.996;2024-03-22T07:41:45;23.20;;;9.45;;
25079;SDS011;13071;48.868;9.996;2024-03-22T07:44:11;18.63;;;9.32;;
25079;SDS011;13071;48.868;9.996;2024-03-22T07:46:37;20.52;;;9.35;;
25079;SDS011;13071;48.868;9.996;2024-03-22T07:49:05;22.27;;;9.55;;
25079;SDS011;13071;48.868;9.996;2024-03-22T07:51:30;19.90;;;9.48;;
25079;SDS011;13071;48.868;9.996;2024-03-22T07:53:56;16.77;;;8.85;;
25079;SDS011;13071;48.868;9.996;2024-03-22T07:56:22;19.52;;;9.60;;
25079;SDS011;13071;48.868;9.996;2024-03-22T07:58:48;19.75;;;9.23;;
25079;SDS011;13071;48.868;9.996;2024-03-22T08:01:13;19.63;;;9.45;;
25079;SDS011;13071;48.868;9.996;2024-03-22T08:03:40;18.10;;;9.60;;
25079;SDS011;13071;48.868;9.996;2024-03-22T08:06:07;18.63;;;9.20;;
25079;SDS011;13071;48.868;9.996;2024-03-22T08:08:33;19.42;;;9.25;;
25079;SDS011;13071;48.868;9.996;2024-03-22T08:10:59;17.73;;;9.45;;
25079;SDS011;13071;48.868;9.996;2024-03-22T08:13:25;17.25;;;8.98;;
25079;SDS011;13071;48.868;9.996;2024-03-22T08:15:51;18.15;;;8.98;;
25079;SDS011;13071;48.868;9.996;2024-03-22T08:18:17;17.02;;;8.43;;
25079;SDS011;13071;48.868;9.996;2024-03-22T08:20:43;20.83;;;8.75;;
25079;SDS011;13071;48.868;9.996;2024-03-22T08:23:12;17.30;;;8.45;;
25079;SDS011;13071;48.868;9.996;2024-03-22T08:25:37;17.52;;;8.65;;
25079;SDS011;13071;48.868;9.996;2024-03-22T08:28:04;17.60;;;8.52;;
25079;SDS011;13071;48.868;9.996;2024-03-22T08:30:29;17.58;;;8.65;;
25079;SDS011;13071;48.868;9.996;2024-03-22T08:32:55;19.88;;;8.30;;
25079;SDS011;13071;48.868;9.996;2024-03-22T08:35:21;14.60;;;7.78;;
25079;SDS011;13071;48.868;9.996;2024-03-22T08:37:47;17.73;;;8.68;;
25079;SDS011;13071;48.868;9.996;2024-03-22T08:40:14;16.45;;;8.65;;
25079;SDS011;13071;48.868;9.996;2024-03-22T08:42:40;14.05;;;8.02;;
25079;SDS011;13071;48.868;9.996;2024-03-22T08:45:07;17.83;;;8.50;;
25079;SDS011;13071;48.868;9.996;2024-03-22T08:47:34;14.38;;;7.95;;
25079;SDS011;13071;48.868;9.996;2024-03-22T08:49:59;15.98;;;8.15;;
25079;SDS011;13071;48.868;9.996;2024-03-22T08:52:25;15.00;;;8.00;;
25079;SDS011;13071;48.868;9.996;2024-03-22T08:54:52;14.85;;;8.05;;
25079;SDS011;13071;48.868;9.996;2024-03-22T08:57:19;16.00;;;7.93;;
25079;SDS011;13071;48.868;9.996;2024-03-22T08:59:45;12.15;;;7.43;;
25079;SDS011;13071;48.868;9.996;2024-03-22T09:02:11;17.17;;;7.85;;
25079;SDS011;13071;48.868;9.996;2024-03-22T09:04:37;14.88;;;7.60;;
25079;SDS011;13071;48.868;9.996;2024-03-22T09:07:03;11.80;;;6.50;;
25079;SDS011;13071;48.868;9.996;2024-03-22T09:09:29;14.13;;;6.88;;
25079;SDS011;13071;48.868;9.996;2024-03-22T09:11:55;16.50;;;7.70;;
25079;SDS011;13071;48.868;9.996;2024-03-22T09:14:22;13.38;;;7.00;;
25079;SDS011;13071;48.868;9.996;2024-03-22T09:16:48;12.80;;;7.32;;
25079;SDS011;13071;48.868;9.996;2024-03-22T09:19:14;14.35;;;8.15;;
25079;SDS011;13071;48.868;9.996;2024-03-22T09:21:41;14.55;;;7.40;;
25079;SDS011;13071;48.868;9.996;2024-03-22T09:24:07;13.90;;;7.10;;
25079;SDS011;13071;48.868;9.996;2024-03-22T09:26:33;13.18;;;7.00;;
25079;SDS011;13071;48.868;9.996;2024-03-22T09:28:59;15.32;;;6.30;;
25079;SDS011;13071;48.868;9.996;2024-03-22T09:31:26;10.98;;;6.85;;
25079;SDS011;13071;48.868;9.996;2024-03-22T09:33:52;17.67;;;7.35;;
25079;SDS011;13071;48.868;9.996;2024-03-22T09:36:18;14.45;;;6.60;;
25079;SDS011;13071;48.868;9.996;2024-03-22T09:38:44;15.48;;;6.60;;
25079;SDS011;13071;48.868;9.996;2024-03-22T09:41:10;13.38;;;6.47;;
25079;SDS011;13071;48.868;9.996;2024-03-22T09:43:38;12.02;;;6.40;;
25079;SDS011;13071;48.868;9.996;2024-03-22T09:46:05;12.00;;;6.22;;
25079;SDS011;13071;48.868;9.996;2024-03-22T09:48:31;15.75;;;6.65;;
25079;SDS011;13071;48.868;9.996;2024-03-22T09:50:59;14.13;;;6.70;;
25079;SDS011;13071;48.868;9.996;2024-03-22T09:53:25;12.63;;;6.20;;
25079;SDS011;13071;48.868;9.996;2024-03-22T09:55:53;9.32;;;5.22;;
25079;SDS011;13071;48.868;9.996;2024-03-22T09:58:22;9.43;;;5.70;;
25079;SDS011;13071;48.868;9.996;2024-03-22T10:00:49;11.25;;;5.78;;
25079;SDS011;13071;48.868;9.996;2024-03-22T10:03:15;8.48;;;5.25;;
25079;SDS011;13071;48.868;9.996;2024-03-22T10:05:43;12.35;;;6.35;;
25079;SDS011;13071;48.868;9.996;2024-03-22T10:08:08;9.25;;;5.80;;
25079;SDS011;13071;48.868;9.996;2024-03-22T10:10:35;14.50;;;5.68;;
25079;SDS011;13071;48.868;9.996;2024-03-22T10:13:00;14.02;;;5.93;;
25079;SDS011;13071;48.868;9.996;2024-03-22T10:15:27;9.45;;;5.70;;
25079;SDS011;13071;48.868;9.996;2024-03-22T10:17:52;9.10;;;5.45;;
25079;SDS011;13071;48.868;9.996;2024-03-22T10:20:21;9.57;;;5.00;;
25079;SDS011;13071;48.868;9.996;2024-03-22T10:22:49;9.82;;;5.55;;
25079;SDS011;13071;48.868;9.996;2024-03-22T10:25:21;8.63;;;5.40;;
25079;SDS011;13071;48.868;9.996;2024-03-22T10:27:46;10.20;;;5.60;;
25079;SDS011;13071;48.868;9.996;2024-03-22T10:30:13;9.93;;;5.60;;
25079;SDS011;13071;48.868;9.996;2024-03-22T10:32:41;7.10;;;4.25;;
25079;SDS011;13071;48.868;9.996;2024-03-22T10:35:08;10.57;;;5.43;;
25079;SDS011;13071;48.868;9.996;2024-03-22T10:37:36;9.60;;;5.15;;
25079;SDS011;13071;48.868;9.996;2024-03-22T10:40:04;8.63;;;4.75;;
25079;SDS011;13071;48.868;9.996;2024-03-22T10:42:32;9.07;;;5.38;;
25079;SDS011;13071;48.868;9.996;2024-03-22T10:44:59;8.95;;;4.85;;
25079;SDS011;13071;48.868;9.996;2024-03-22T10:47:24;13.05;;;5.38;;
25079;SDS011;13071;48.868;9.996;2024-03-22T10:49:54;11.68;;;5.40;;
25079;SDS011;13071;48.868;9.996;2024-03-22T10:52:24;9.80;;;5.32;;
25079;SDS011;13071;48.868;9.996;2024-03-22T10:54:50;10.80;;;5.68;;
25079;SDS011;13071;48.868;9.996;2024-03-22T10:57:17;10.20;;;5.88;;
25079;SDS011;13071;48.868;9.996;2024-03-22T10:59:44;11.18;;;5.32;;
25079;SDS011;13071;48.868;9.996;2024-03-22T11:02:11;10.52;;;5.43;;
25079;SDS011;13071;48.868;9.996;2024-03-22T11:04:38;8.98;;;4.93;;
25079;SDS011;13071;48.868;9.996;2024-03-22T11:07:04;8.93;;;5.00;;
25079;SDS011;13071;48.868;9.996;2024-03-22T11:09:30;7.68;;;5.05;;
25079;SDS011;13071;48.868;9.996;2024-03-22T11:11:56;9.95;;;4.97;;
25079;SDS011;13071;48.868;9.996;2024-03-22T11:14:25;8.48;;;5.05;;
25079;SDS011;13071;48.868;9.996;2024-03-22T11:16:50;10.80;;;4.82;;
25079;SDS011;13071;48.868;9.996;2024-03-22T11:19:17;11.07;;;5.47;;
25079;SDS011;13071;48.868;9.996;2024-03-22T11:21:43;8.88;;;5.75;;
25079;SDS011;13071;48.868;9.996;2024-03-22T11:24:09;11.05;;;5.97;;
25079;SDS011;13071;48.868;9.996;2024-03-22T11:26:36;10.65;;;5.63;;
25079;SDS011;13071;48.868;9.996;2024-03-22T11:29:02;13.35;;;6.30;;
25079;SDS011;13071;48.868;9.996;2024-03-22T11:31:29;12.38;;;6.00;;
25079;SDS011;13071;48.868;9.996;2024-03-22T11:33:56;9.25;;;5.25;;
25079;SDS011;13071;48.868;9.996;2024-03-22T11:36:21;9.27;;;5.72;;
25079;SDS011;13071;48.868;9.996;2024-03-22T11:38:48;8.50;;;5.15;;
25079;SDS011;13071;48.868;9.996;2024-03-22T11:41:15;9.30;;;5.53;;
25079;SDS011;13071;48.868;9.996;2024-03-22T11:43:42;8.07;;;4.43;;
25079;SDS011;13071;48.868;9.996;2024-03-22T11:46:08;6.07;;;3.92;;
25079;SDS011;13071;48.868;9.996;2024-03-22T11:48:39;6.32;;;4.38;;
25079;SDS011;13071;48.868;9.996;2024-03-22T11:51:05;9.30;;;3.97;;
25079;SDS011;13071;48.868;9.996;2024-03-22T11:53:31;5.32;;;3.47;;
25079;SDS011;13071;48.868;9.996;2024-03-22T11:55:57;7.95;;;3.42;;
25079;SDS011;13071;48.868;9.996;2024-03-22T11:58:25;7.78;;;4.15;;
25079;SDS011;13071;48.868;9.996;2024-03-22T12:00:50;9.38;;;4.22;;
25079;SDS011;13071;48.868;9.996;2024-03-22T12:03:17;9.00;;;4.63;;
25079;SDS011;13071;48.868;9.996;2024-03-22T12:05:44;7.78;;;4.57;;
25079;SDS011;13071;48.868;9.996;2024-03-22T12:08:10;7.30;;;3.97;;
25079;SDS011;13071;48.868;9.996;2024-03-22T12:10:36;7.78;;;4.15;;
25079;SDS011;13071;48.868;9.996;2024-03-22T12:13:03;6.32;;;4.18;;
25079;SDS011;13071;48.868;9.996;2024-03-22T12:15:29;7.00;;;4.10;;
25079;SDS011;13071;48.868;9.996;2024-03-22T12:17:55;6.60;;;4.60;;
25079;SDS011;13071;48.868;9.996;2024-03-22T12:20:21;10.90;;;4.47;;
25079;SDS011;13071;48.868;9.996;2024-03-22T12:22:48;6.55;;;3.97;;
25079;SDS011;13071;48.868;9.996;2024-03-22T12:25:14;6.47;;;4.45;;
25079;SDS011;13071;48.868;9.996;2024-03-22T12:27:40;5.85;;;4.22;;
25079;SDS011;13071;48.868;9.996;2024-03-22T12:30:06;8.15;;;4.03;;
25079;SDS011;13071;48.868;9.996;2024-03-22T12:32:33;6.10;;;4.30;;
25079;SDS011;13071;48.868;9.996;2024-03-22T12:34:58;7.80;;;3.92;;
25079;SDS011;13071;48.868;9.996;2024-03-22T12:37:25;7.32;;;4.20;;
25079;SDS011;13071;48.868;9.996;2024-03-22T12:39:52;6.45;;;4.00;;
25079;SDS011;13071;48.868;9.996;2024-03-22T12:42:18;6.90;;;4.25;;
25079;SDS011;13071;48.868;9.996;2024-03-22T12:44:43;7.10;;;4.32;;
25079;SDS011;13071;48.868;9.996;2024-03-22T12:47:10;7.03;;;4.13;;
25079;SDS011;13071;48.868;9.996;2024-03-22T12:49:35;9.63;;;4.82;;
25079;SDS011;13071;48.868;9.996;2024-03-22T12:52:02;8.45;;;4.28;;
25079;SDS011;13071;48.868;9.996;2024-03-22T12:54:28;6.82;;;4.15;;
25079;SDS011;13071;48.868;9.996;2024-03-22T12:56:55;9.20;;;4.10;;
25079;SDS011;13071;48.868;9.996;2024-03-22T12:59:21;9.13;;;4.35;;
25079;SDS011;13071;48.868;9.996;2024-03-22T13:01:47;6.45;;;4.10;;
25079;SDS011;13071;48.868;9.996;2024-03-22T13:04:12;8.65;;;4.15;;
25079;SDS011;13071;48.868;9.996;2024-03-22T13:06:39;8.07;;;4.22;;
25079;SDS011;13071;48.868;9.996;2024-03-22T13:09:04;7.15;;;4.25;;
25079;SDS011;13071;48.868;9.996;2024-03-22T13:11:31;9.50;;;4.68;;
25079;SDS011;13071;48.868;9.996;2024-03-22T13:13:58;8.13;;;5.03;;
25079;SDS011;13071;48.868;9.996;2024-03-22T13:16:26;8.65;;;4.18;;
25079;SDS011;13071;48.868;9.996;2024-03-22T13:18:51;6.90;;;4.53;;
25079;SDS011;13071;48.868;9.996;2024-03-22T13:21:18;13.98;;;4.40;;
25079;SDS011;13071;48.868;9.996;2024-03-22T13:23:44;4.63;;;3.33;;
25079;SDS011;13071;48.868;9.996;2024-03-22T13:26:10;7.10;;;3.97;;
25079;SDS011;13071;48.868;9.996;2024-03-22T13:28:36;6.93;;;4.25;;
25079;SDS011;13071;48.868;9.996;2024-03-22T13:31:04;5.30;;;3.95;;
25079;SDS011;13071;48.868;9.996;2024-03-22T13:33:31;5.55;;;4.13;;
25079;SDS011;13071;48.868;9.996;2024-03-22T13:35:58;8.13;;;4.15;;
25079;SDS011;13071;48.868;9.996;2024-03-22T13:38:23;5.93;;;4.20;;
25079;SDS011;13071;48.868;9.996;2024-03-22T13:40:53;5.22;;;3.88;;
25079;SDS011;13071;48.868;9.996;2024-03-22T13:43:18;7.22;;;4.05;;
25079;SDS011;13071;48.868;9.996;2024-03-22T13:45:45;5.88;;;3.67;;
25079;SDS011;13071;48.868;9.996;2024-03-22T13:48:12;8.73;;;3.90;;
25079;SDS011;13071;48.868;9.996;2024-03-22T13:50:39;6.63;;;4.80;;
25079;SDS011;13071;48.868;9.996;2024-03-22T13:53:05;6.13;;;4.35;;
25079;SDS011;13071;48.868;9.996;2024-03-22T13:55:32;4.60;;;4.00;;
25079;SDS011;13071;48.868;9.996;2024-03-22T13:57:57;7.13;;;4.03;;
25079;SDS011;13071;48.868;9.996;2024-03-22T14:00:24;8.10;;;4.28;;
25079;SDS011;13071;48.868;9.996;2024-03-22T14:02:50;4.90;;;3.80;;
25079;SDS011;13071;48.868;9.996;2024-03-22T14:05:20;9.30;;;4.65;;
25079;SDS011;13071;48.868;9.996;2024-03-22T14:07:46;7.20;;;3.90;;
25079;SDS011;13071;48.868;9.996;2024-03-22T14:10:12;5.45;;;4.00;;
25079;SDS011;13071;48.868;9.996;2024-03-22T14:12:41;13.18;;;4.93;;
25079;SDS011;13071;48.868;9.996;2024-03-22T14:15:07;17.45;;;9.55;;
25079;SDS011;13071;48.868;9.996;2024-03-22T14:17:33;8.60;;;5.22;;
25079;SDS011;13071;48.868;9.996;2024-03-22T14:19:59;7.05;;;4.40;;
25079;SDS011;13071;48.868;9.996;2024-03-22T14:22:26;7.22;;;4.00;;
25079;SDS011;13071;48.868;9.996;2024-03-22T14:24:52;9.73;;;4.90;;
25079;SDS011;13071;48.868;9.996;2024-03-22T14:27:18;7.25;;;4.30;;
25079;SDS011;13071;48.868;9.996;2024-03-22T14:29:45;7.68;;;4.45;;
25079;SDS011;13071;48.868;9.996;2024-03-22T14:32:11;7.43;;;4.63;;
25079;SDS011;13071;48.868;9.996;2024-03-22T14:34:37;6.68;;;3.58;;